To NAV CANADA Home Page Login to a new session Search on AWWS site Feedback and Comments Disclaimer Vers la page française équivalente Tips FAQ What's new on the site To the Forecasts and Observations / NOTAM section To "File a Flight Plan" website Publications and other links Update of the User's profile FIC Telephone Numbers My Weather Data Folder Route Weather Data Regional Weather Data Local Weather Data To the Forecasts and Observations / NOTAM section
Request Generated 11/26/2015 at 15:55:06 UTC . Weather information available at that time is displayed.



METAR CYTR 261500Z 18008KT 15SM -SHRA FEW082 BKN140 OVC250 09/02 A3054 RMK AC2AC5CI1 SLP344=
METAR CYTR 261400Z 19006KT 15SM SCT079 BKN250 08/03 A3054 RMK AC3CI1 SLP345=
METAR CYTR 261300Z 16003KT 15SM BKN120 BKN250 07/03 A3053 RMK AC5CI2 SLP344=

TAF CYTR 261130Z 2612/2712 16012KT P6SM FEW100 BKN220
FM261500 19012G22KT P6SM BKN050 OVC120
BECMG 2702/2704 18015KT
BECMG 2710/2712 24015KT
Your time UTC time
Weather data provided by Environment Canada and NAV CANADA